Latest Weather Observations for Trepell

IDQ60801

Issued at 5:05 pm EST Sunday 23 November 2014 (issued every 30 minutes, with the page automatically refreshed every 10 minutes)

About weather observations | Map of weather stations | Latest weather observations for QLD | Other Formats
Station Details ID: 037036 Name: TREPELL AIRPORT Lat: -21.84 Lon: 140.89 Height: 266.2 m
Data from the previous 72 hours. | See also: Recent months at Trepell
Date/Time
EST
Temp
°C
App
Temp
°C
Dew
Point
Rel
Hum
%
Delta-T
°C
Wind Press
QNH
hPa
Press
MSL
hPa
Rain
since 9 am
mm
Dir
 
Spd
km/h
Gust
km/h
Spd
kts
Gust
kts
23/05:00pm 36.8 30.3 11.6 22 15.2 ENE 37 46 20 25 1007.6 1005.7 -
23/04:53pm 38.7 32.4 10.9 19 16.7 ENE 35 46 19 25 1007.4 1005.5 -
23/04:30pm 39.4 38.1 9.8 17 17.6 ENE 7 13 4 7 1007.4 1005.5 -
23/04:00pm 39.0 37.5 10.4 18 17.1 SE 9 11 5 6 1007.7 1005.9 -
23/03:30pm 40.1 35.7 10.4 17 17.8 NNE 24 37 13 20 1008.1 1006.2 -
23/03:00pm 39.4 36.4 10.7 18 17.3 NNE 17 28 9 15 1008.6 1006.7 -
23/02:30pm 39.5 37.5 11.6 19 17.0 NNE 13 19 7 10 1009.1 1007.2 -
23/02:00pm 40.2 37.9 10.5 17 17.9 NNW 13 26 7 14 1009.6 1007.7 -
23/01:30pm 40.0 36.9 10.3 17 17.8 N 17 22 9 12 1010.0 1008.1 -
23/01:00pm 40.4 36.3 11.5 18 17.7 NE 24 35 13 19 1010.4 1008.5 -
23/12:30pm 40.5 36.6 13.2 20 17.1 NE 26 35 14 19 1011.0 1009.1 -
23/12:00pm 38.8 34.3 12.5 21 16.2 NE 28 41 15 22 1011.4 1009.6 -
23/11:30am 38.6 33.5 13.1 22 15.8 NE 32 44 17 24 1012.0 1010.1 -
23/11:00am 36.9 31.6 12.4 23 15.0 NE 32 41 17 22 1012.3 1010.4 -
23/10:30am 37.5 32.5 13.5 24 14.9 NE 32 44 17 24 1012.7 1010.8 -
23/10:08am 37.2 32.7 13.9 25 14.5 NE 30 54 16 29 1012.8 1010.9 -
23/10:00am 37.0 32.5 13.7 25 14.5 NE 30 39 16 21 1012.9 1011.0 -
23/03:30am 28.3 28.1 15.6 46 7.9 E 11 13 6 7 1010.6 1008.7 -
23/02:30am 28.3 27.8 15.9 47 7.7 ESE 13 17 7 9 1010.6 1008.7 -
23/02:00am 28.3 27.1 16.2 47 7.6 ESE 17 20 9 11 1010.8 1008.9 -
23/01:30am 28.7 - 15.9 45 8.0 - - - - - 1011.0 1009.1 -
 
Date/Time
EST
Temp
°C
App
Temp
°C
Dew
Point
Rel
Hum
%
Delta-T
°C
Wind Press
QNH
hPa
Press
MSL
hPa
Rain
since 9 am
mm
Dir
 
Spd
km/h
Gust
km/h
Spd
kts
Gust
kts
22/10:30pm 28.8 28.1 16.4 47 7.8 S 15 19 8 10 1013.2 1011.3 -
22/10:00pm 29.2 29.2 15.3 42 8.6 SW 9 13 5 7 1012.4 1010.5 0.0
22/09:30pm 29.1 27.9 16.0 45 8.2 W 17 20 9 11 1011.5 1009.7 0.0
22/09:00pm 28.5 27.2 16.7 48 7.4 W 19 22 10 12 1011.2 1009.4 0.0
22/08:30pm 28.5 26.9 17.4 51 7.1 W 22 28 12 15 1011.0 1009.1 0.0
22/08:00pm 28.1 25.9 17.9 54 6.5 SW 26 32 14 17 1011.2 1009.4 0.0
22/07:30pm 29.1 27.1 17.3 49 7.5 WSW 24 32 13 17 1010.8 1008.9 0.0
22/07:00pm 30.8 27.5 16.0 40 9.3 W 28 35 15 19 1010.4 1008.5 0.0
22/06:30pm 29.5 26.3 16.3 45 8.3 WSW 28 43 15 23 1010.1 1008.2 0.0
22/06:00pm 32.3 29.2 14.4 33 11.1 S 24 37 13 20 1009.3 1007.4 0.0
22/05:30pm 32.1 27.3 14.7 35 10.8 W 33 48 18 26 1008.1 1006.2 0.0
22/05:00pm 36.5 32.2 12.0 23 14.9 W 26 39 14 21 1007.2 1005.3 0.0
22/04:30pm 40.1 36.4 9.5 16 18.1 NNE 19 28 10 15 1007.0 1005.1 0.0
22/04:00pm 40.5 37.3 9.8 16 18.3 NE 17 26 9 14 1007.2 1005.3 0.0
22/03:30pm 40.9 38.4 8.1 14 19.1 NE 11 22 6 12 1007.6 1005.7 0.0
22/03:00pm 42.2 38.9 8.1 13 20.0 NE 15 20 8 11 1008.2 1006.3 0.0
22/02:30pm 42.0 40.1 9.0 14 19.6 NE 9 28 5 15 1008.6 1006.7 0.0
22/02:00pm 41.2 37.2 8.4 14 19.2 N 19 26 10 14 1009.0 1007.1 0.0
22/01:30pm 40.7 39.6 10.0 16 18.4 W 6 17 3 9 1009.4 1007.5 0.0
22/01:00pm 39.8 37.2 9.2 16 18.1 NNW 13 24 7 13 1009.9 1008.0 0.0
22/12:30pm 40.2 36.9 9.6 16 18.2 NE 17 28 9 15 1010.4 1008.5 0.0
22/12:00pm 39.6 38.5 10.8 18 17.4 ENE 7 9 4 5 1010.8 1008.9 0.0
22/11:30am 38.9 36.8 11.1 19 16.8 NW 13 24 7 13 1011.3 1009.5 0.0
22/11:00am 38.9 36.6 11.9 20 16.5 WNW 15 20 8 11 1011.6 1009.8 0.0
22/10:30am 37.8 36.1 12.4 22 15.5 W 13 24 7 13 1012.0 1010.1 0.0
22/10:00am 36.5 34.7 13.3 25 14.3 WNW 15 24 8 13 1012.3 1010.4 0.0
22/09:30am 35.5 33.0 13.6 26 13.5 WNW 19 26 10 14 1012.4 1010.5 0.0
22/09:00am 34.2 31.3 14.1 29 12.5 WNW 22 28 12 15 1012.4 1010.5 0.0
22/08:30am 32.2 29.6 14.8 35 10.8 NW 22 26 12 14 1012.4 1010.5 0.0
22/08:00am 31.1 29.8 15.9 40 9.6 WNW 17 22 9 12 1012.4 1010.5 0.0
22/07:30am 29.4 28.2 16.2 44 8.3 WNW 17 26 9 14 1012.0 1010.1 0.0
22/07:00am 28.5 28.1 16.1 47 7.8 W 13 19 7 10 1011.7 1009.9 0.0
22/06:30am 27.9 28.2 15.9 48 7.5 W 9 13 5 7 1011.4 1009.6 0.0
22/06:00am 28.2 28.3 15.5 46 7.9 NW 9 11 5 6 1010.6 1008.7 0.0
22/05:30am 28.6 27.7 15.8 45 8.0 NNW 15 19 8 10 1010.4 1008.5 0.0
22/05:00am 28.7 27.6 15.2 43 8.3 N 15 22 8 12 1010.2 1008.3 0.0
22/04:30am 29.0 26.9 14.8 42 8.7 NNW 19 26 10 14 1010.0 1008.1 0.0
22/04:00am 29.1 27.3 14.5 41 8.9 NNW 17 20 9 11 1009.8 1007.9 0.0
22/03:30am 29.3 27.0 14.7 41 9.0 N 20 30 11 16 1009.6 1007.7 0.0
22/03:00am 29.3 26.6 14.7 41 9.0 N 22 32 12 17 1009.7 1007.8 0.0
22/02:30am 29.0 25.4 15.2 43 8.5 N 28 37 15 20 1010.0 1008.1 0.0
22/02:00am 29.1 25.5 15.2 42 8.6 N 28 41 15 22 1010.2 1008.3 0.0
22/01:30am 29.1 24.8 16.0 45 8.2 N 33 56 18 30 1010.5 1008.6 0.0
22/01:24am 29.2 24.8 15.7 44 8.4 N 33 56 18 30 1010.5 1008.6 0.0
22/01:00am 29.4 25.0 15.1 41 8.8 NNE 32 43 17 23 1010.5 1008.6 0.0
22/12:30am 30.1 26.2 13.4 36 10.1 NNE 26 33 14 18 1010.4 1008.5 0.0
22/12:00am 29.8 27.6 14.4 39 9.4 NE 19 24 10 13 1010.3 1008.4 0.0
 
Date/Time
EST
Temp
°C
App
Temp
°C
Dew
Point
Rel
Hum
%
Delta-T
°C
Wind Press
QNH
hPa
Press
MSL
hPa
Rain
since 9 am
mm
Dir
 
Spd
km/h
Gust
km/h
Spd
kts
Gust
kts
21/11:30pm 29.9 28.2 14.8 39 9.3 NE 17 22 9 12 1010.5 1008.6 0.0
21/11:00pm 31.6 29.4 13.4 33 11.1 NE 17 20 9 11 1010.7 1008.8 0.0
21/10:30pm 32.6 30.0 13.3 31 11.7 N 19 24 10 13 1010.3 1008.4 0.0
21/10:00pm 32.6 30.3 14.7 34 11.1 N 20 26 11 14 1010.4 1008.5 0.0
21/09:30pm 33.3 30.2 14.4 32 11.7 N 24 32 13 17 1009.9 1008.0 0.0
21/09:00pm 34.1 30.8 14.1 30 12.4 NNW 24 32 13 17 1009.8 1007.9 0.0
21/08:30pm 34.5 31.2 13.9 29 12.7 N 24 35 13 19 1009.7 1007.8 0.0
21/08:00pm 34.5 32.3 13.3 27 13.0 N 17 24 9 13 1009.6 1007.7 0.0
21/07:30pm 34.5 30.4 12.8 27 13.2 N 26 33 14 18 1009.0 1007.1 0.0
21/07:00pm 33.9 32.5 13.4 29 12.6 NNE 13 19 7 10 1009.4 1007.5 0.0
21/06:41pm 34.1 29.9 13.5 28 12.6 ENE 28 46 15 25 1009.1 1007.2 0.0
21/06:30pm 34.7 32.6 15.1 31 12.3 NE 20 26 11 14 1008.9 1007.0 0.0
21/06:00pm 37.2 34.8 12.6 23 15.1 N 17 24 9 13 1007.9 1006.1 0.0
21/05:30pm 38.0 34.0 11.9 21 15.9 NNW 24 30 13 16 1007.1 1005.2 0.0
21/05:00pm 38.2 33.5 12.0 21 16.0 NW 28 33 15 18 1006.9 1005.0 0.0
21/04:30pm 39.1 33.6 12.0 20 16.6 NNW 32 41 17 22 1006.7 1004.8 0.0
21/04:00pm 39.8 34.8 11.0 18 17.5 NNW 28 35 15 19 1006.3 1004.4 0.0
21/03:30pm 40.4 35.7 10.6 17 18.0 NNW 26 32 14 17 1006.4 1004.5 0.0
21/03:00pm 40.9 37.2 10.1 16 18.5 N 20 30 11 16 1006.6 1004.7 0.0
21/02:30pm 41.3 36.5 10.4 16 18.6 NNE 26 39 14 21 1006.9 1005.0 0.0
21/02:00pm 41.1 37.1 8.3 14 19.2 N 19 30 10 16 1007.4 1005.5 0.0
21/01:30pm 41.9 40.1 7.8 13 19.9 NE 7 13 4 7 1008.3 1006.4 0.0
21/01:00pm 41.4 39.1 7.4 13 19.7 WNW 9 15 5 8 1008.8 1006.9 0.0
21/12:30pm 42.6 40.5 8.4 13 20.2 SE 9 17 5 9 1009.2 1007.3 0.0
21/12:00pm 41.1 39.1 10.3 16 18.6 WNW 11 20 6 11 1009.7 1007.8 0.0
21/11:30am 40.7 37.5 10.0 16 18.4 W 17 24 9 13 1010.1 1008.2 0.0
21/11:00am 41.4 37.7 11.4 17 18.4 NW 22 33 12 18 1010.4 1008.5 0.0
21/10:30am 40.5 37.2 11.6 18 17.7 WNW 20 28 11 15 1010.8 1008.9 0.0
21/10:00am 39.1 36.5 12.0 20 16.6 WNW 17 26 9 14 1011.1 1009.3 0.0
21/09:30am 38.6 36.0 13.8 23 15.5 WNW 20 30 11 16 1011.1 1009.3 0.0
21/09:00am 37.9 35.4 15.1 26 14.5 NW 22 28 12 15 1011.2 1009.4 0.0
21/08:30am 37.0 34.4 16.0 28 13.5 NW 24 32 13 17 1011.2 1009.4 0.0
21/08:00am 35.9 33.8 16.1 30 12.7 WNW 22 39 12 21 1011.0 1009.1 0.0
21/07:30am 34.0 31.8 15.0 32 11.9 NW 20 24 11 13 1010.8 1008.9 0.0
21/07:00am 31.9 29.5 5.4 19 14.2 NNW 7 11 4 6 1010.4 1008.5 0.0
21/06:30am 28.7 25.1 0.4 16 13.7 N 9 13 5 7 1010.0 1008.1 0.0
21/06:00am 26.5 22.1 -2.2 15 13.0 N 11 13 6 7 1009.6 1007.7 0.0
21/05:30am 27.8 23.9 -1.2 15 13.5 N 9 11 5 6 1009.2 1007.3 0.0
21/05:00am 27.3 23.0 -1.6 15 13.3 NNE 11 13 6 7 1008.9 1007.0 0.0
21/04:30am 28.4 23.7 -1.6 14 13.9 N 13 15 7 8 1008.8 1006.9 0.0
21/04:00am 28.4 24.5 -1.6 14 14.0 NNE 9 15 5 8 1008.9 1007.0 0.0
21/03:30am 28.0 23.3 -2.0 14 13.8 NNE 13 15 7 8 1008.8 1006.9 0.0
21/03:00am 29.5 24.0 -1.8 13 14.6 NE 17 20 9 11 1008.8 1006.9 0.0
21/02:30am 30.4 25.9 -0.1 14 14.8 NE 13 19 7 10 1008.7 1006.8 0.0
21/02:00am 27.9 23.9 -2.0 14 13.8 N 9 11 5 6 1008.6 1006.7 0.0
21/01:30am 29.2 26.9 -2.0 13 14.5 CALM 0 0 0 0 1008.6 1006.7 0.0
21/01:00am 29.0 26.7 -2.2 13 14.4 CALM 0 0 0 0 1008.6 1006.7 0.0
21/12:30am 30.3 28.1 -1.2 13 14.9 CALM 0 0 0 0 1008.7 1006.8 0.0
21/12:00am 30.5 28.0 -1.0 13 15.0 SW 2 7 1 4 1009.1 1007.2 0.0
 
Date/Time
EST
Temp
°C
App
Temp
°C
Dew
Point
Rel
Hum
%
Delta-T
°C
Wind Press
QNH
hPa
Press
MSL
hPa
Rain
since 9 am
mm
Dir
 
Spd
km/h
Gust
km/h
Spd
kts
Gust
kts
20/11:30pm 31.5 27.8 -0.2 13 15.4 SSE 9 13 5 7 1009.1 1007.2 0.0
20/11:00pm 31.4 27.5 -1.4 12 15.7 S 9 13 5 7 1009.1 1007.2 0.0
20/10:30pm 32.6 28.5 -0.5 12 16.2 S 11 13 6 7 1009.1 1007.2 0.0
20/10:00pm 33.6 29.6 0.3 12 16.6 S 11 15 6 8 1009.2 1007.3 0.0
20/09:30pm 34.0 30.0 0.6 12 16.7 S 11 13 6 7 1009.0 1007.1 0.0
20/09:00pm 35.3 30.9 0.4 11 17.6 S 13 15 7 8 1008.8 1006.9 0.0
20/08:30pm 36.0 32.1 0.9 11 17.9 S 11 15 6 8 1008.5 1006.6 0.0
20/08:00pm 36.9 32.9 0.3 10 18.6 SSW 11 13 6 7 1008.2 1006.3 0.0
20/07:30pm 38.0 34.1 1.1 10 19.1 S 11 11 6 6 1007.6 1005.7 0.0
20/07:00pm 39.6 34.9 0.9 9 20.2 S 15 19 8 10 1007.3 1005.4 0.0
20/06:30pm 41.0 36.6 0.3 8 21.2 S 13 20 7 11 1007.0 1005.1 0.0
20/06:00pm 41.9 37.2 0.9 8 21.7 SSW 15 22 8 12 1006.7 1004.8 0.0
20/05:30pm 42.4 38.5 1.3 8 21.9 S 11 13 6 7 1006.5 1004.6 0.0

Other Formats:

Comma delimited format used in spreadsheet applications
http://www.bom.gov.au/fwo/IDQ60801/IDQ60801.94338.axf

JavaScript Object Notation format (JSON) in row-major order
http://www.bom.gov.au/fwo/IDQ60801/IDQ60801.94338.json